Flight Track Log - Related Links

Times and Time Zones

All times are in EDT time to prevent confusion due to time zone crossing. See the SWA127 flight status page for this flight to view local times or setup timezone preferences in your user account.


Time Position Orientation Groundspeed Altitude Reporting Facility
EDT Latitude Longitude Course Direction KTS MPH feet Rate Location/Type
Tue 06:38:08 AM 40.4442 -80.3239 180° South 256 295 5,500  Level Cleveland Center
Tue 06:39:09 AM 40.3711 -80.3189 177° South 283 326 8,800 2,727 Climbing Cleveland Center
Tue 06:40:09 AM 40.2858 -80.3164 179° South 298 343 11,000 2,650 Climbing Cleveland Center
Tue 06:41:09 AM 40.1897 -80.3114 178° South 350 403 14,100 2,850 Climbing Cleveland Center
Tue 06:42:09 AM 40.0919 -80.3064 178° South 356 410 16,700 2,339 Climbing Cleveland Center
Tue 06:43:00 AM 39.6829 -80.2500 180° South  Level FlightAware Approximate
Tue 06:44:06 AM 39.8947 -80.2972 178° South 364 419 21,000  Level Washington Center
Tue 06:45:06 AM 39.7825 -80.2928 178° South 392 451 23,200 2,000 Climbing Washington Center
Tue 06:46:06 AM 39.6681 -80.2878 178° South 408 470 25,000 1,850 Climbing Washington Center
Tue 06:47:06 AM 39.5514 -80.2831 178° South 420 483 26,900 1,550 Climbing Washington Center
Tue 06:48:06 AM 39.4286 -80.2775 178° South 431 496 28,100 1,400 Climbing Washington Center
Tue 06:49:06 AM 39.3039 -80.2697 177° South 442 509 29,700 950 Climbing Washington Center
Tue 06:50:06 AM 39.1803 -80.2858 186° South 442 509 30,000 1,300 Climbing Washington Center
Tue 06:51:06 AM 39.0622 -80.3236 194° South 448 516 32,300 2,250 Climbing Washington Center
Tue 06:52:06 AM 38.9503 -80.3592 194° South 430 495 34,500 1,350 Climbing Washington Center
Tue 06:53:06 AM 38.8406 -80.3892 192° South 418 481 35,000 750 Climbing Washington Center
Tue 06:54:06 AM 38.7158 -80.4344 196° South 426 490 36,000 500 Climbing Washington Center
Tue 06:55:06 AM 38.6125 -80.4622 192° South 426 490 36,000  Level Washington Center
Tue 06:56:06 AM 38.4983 -80.4969 193° South 420 483 36,000  Level Washington Center
Tue 06:57:06 AM 38.3867 -80.5294 193° South 420 483 36,000  Level Washington Center
Tue 06:58:06 AM 38.2606 -80.5500 187° South 420 483 36,000  Level Washington Center
Tue 06:59:06 AM 38.1431 -80.5661 186° South 420 483 36,000  Level Washington Center
Tue 07:00:06 AM 38.0256 -80.5847 187° South 425 489 36,000  Level Washington Center
Tue 07:01:06 AM 37.9100 -80.6033 187° South 425 489 36,000  Level Washington Center
Tue 07:02:06 AM 37.8053 -80.6172 186° South 425 489 36,000  Level Washington Center
Tue 07:03:54 AM 37.5958 -80.6450 186° South 446 513 36,000  Level Atlanta Center
Tue 07:04:54 AM 37.4775 -80.6606 186° South 440 506 36,000  Level Atlanta Center
Tue 07:05:54 AM 37.3467 -80.6792 186° South 435 501 36,000  Level Atlanta Center
Tue 07:06:54 AM 37.2306 -80.6972 187° South 435 501 36,000  Level Atlanta Center
Tue 07:07:54 AM 37.1119 -80.7100 185° South 430 495 36,000  Level Atlanta Center
Tue 07:08:54 AM 37.0061 -80.7247 186° South 430 495 36,000  Level Atlanta Center
Tue 07:09:54 AM 36.8856 -80.7378 185° South 430 495 36,000  Level Atlanta Center
Tue 07:10:54 AM 36.7692 -80.7478 184° South 430 495 36,000  Level Atlanta Center
Tue 07:11:54 AM 36.6506 -80.7603 185° South 424 488 36,000  Level Atlanta Center
Tue 07:12:54 AM 36.5319 -80.7706 184° South 429 494 36,000  Level Atlanta Center
Tue 07:13:54 AM 36.4156 -80.7856 186° South 429 494 36,000  Level Atlanta Center
Tue 07:14:54 AM 36.2950 -80.8006 186° South 429 494 36,000  Level Atlanta Center
Tue 07:15:54 AM 36.1764 -80.8131 185° South 429 494 36,000  Level Atlanta Center
Tue 07:16:54 AM 36.0433 -80.8236 184° South 435 501 36,000  Level Atlanta Center
Tue 07:17:54 AM 35.9247 -80.8361 185° South 441 507 36,000  Level Atlanta Center
Tue 07:18:54 AM 35.8042 -80.8511 186° South 439 505 36,000  Level Atlanta Center
Tue 07:19:54 AM 35.6814 -80.8633 185° South 439 505 36,000  Level Atlanta Center
Tue 07:20:54 AM 35.5606 -80.8758 185° South 439 505 36,000  Level Atlanta Center
Tue 07:21:54 AM 35.4525 -80.8875 185° South 439 505 36,000  Level Atlanta Center
Tue 07:22:54 AM 35.3297 -80.9025 186° South 439 505 36,000  Level Atlanta Center
Tue 07:25:03 AM 35.0667 -80.9322 185° South 455 524 36,000  Level Jacksonville Center
Tue 07:26:03 AM 34.9333 -80.9428 184° South 455 524 36,000  Level Jacksonville Center
Tue 07:27:03 AM 34.8125 -80.9608 187° South 450 518 36,000  Level Jacksonville Center
Tue 07:28:03 AM 34.6917 -80.9636 181° South 439 505 36,000  Level Jacksonville Center
Tue 07:29:03 AM 34.5689 -80.9839 188° South 439 505 36,000  Level Jacksonville Center
Tue 07:30:03 AM 34.4481 -80.9992 186° South 437 503 36,000  Level Jacksonville Center
Tue 07:31:03 AM 34.3272 -81.0092 184° South 442 509 36,000  Level Jacksonville Center
Tue 07:32:03 AM 34.2231 -81.0192 185° South 432 497 36,000  Level Jacksonville Center
Tue 07:33:03 AM 34.1042 -81.0267 183° South 432 497 36,000  Level Jacksonville Center
Tue 07:34:03 AM 33.9856 -81.0417 186° South 426 490 36,000  Level Jacksonville Center
Tue 07:35:03 AM 33.8625 -81.0442 181° South 431 496 36,000  Level Jacksonville Center
Tue 07:36:03 AM 33.7394 -81.0494 182° South 442 509 36,000  Level Jacksonville Center
Tue 07:37:03 AM 33.6164 -81.0469 179° South 442 509 36,000  Level Jacksonville Center
Tue 07:38:03 AM 33.4933 -81.0519 182° South 442 509 36,000  Level Jacksonville Center
Tue 07:39:03 AM 33.3700 -81.0519 180° South 442 509 36,000  Level Jacksonville Center
Tue 07:40:03 AM 33.2469 -81.0569 182° South 442 509 36,000  Level Jacksonville Center
Tue 07:41:03 AM 33.1261 -81.0572 180° South 442 509 36,000  Level Jacksonville Center
Tue 07:42:03 AM 33.0031 -81.0622 182° South 442 509 36,000  Level Jacksonville Center
Tue 07:43:03 AM 32.8797 -81.0622 180° South 442 509 36,000  Level Jacksonville Center
Tue 07:44:03 AM 32.7567 -81.0622 180° South 442 509 36,000  Level Jacksonville Center
Tue 07:45:03 AM 32.6336 -81.0647 181° South 442 509 36,000  Level Jacksonville Center
Tue 07:46:03 AM 32.4978 -81.0675 181° South 442 509 36,000  Level Jacksonville Center
Tue 07:47:03 AM 32.3831 -81.0672 180° South 448 516 36,000  Level Jacksonville Center
Tue 07:48:03 AM 32.2600 -81.0722 182° South 448 516 36,000  Level Jacksonville Center
Tue 07:49:03 AM 32.1367 -81.0722 180° South 448 516 36,000  Level Jacksonville Center
Tue 07:50:03 AM 32.0136 -81.0769 182° South 448 516 36,000  Level Jacksonville Center
Tue 07:51:03 AM 31.8822 -81.0747 179° South 436 502 36,000  Level Jacksonville Center
Tue 07:52:03 AM 31.7631 -81.0769 181° South 434 499 36,000  Level Jacksonville Center
Tue 07:53:03 AM 31.6525 -81.0792 181° South 439 505 36,000  Level Jacksonville Center
Tue 07:54:03 AM 31.5231 -81.0794 180° South 433 498 36,000  Level Jacksonville Center
Tue 07:55:03 AM 31.4000 -81.0817 181° South 438 504 36,000  Level Jacksonville Center
Tue 07:56:03 AM 31.2808 -81.0864 182° South 438 504 36,000  Level Jacksonville Center
Tue 07:57:03 AM 31.1597 -81.0839 179° South 438 504 36,000  Level Jacksonville Center
Tue 07:58:03 AM 31.0408 -81.0886 182° South 438 504 36,000  Level Jacksonville Center
Tue 07:59:03 AM 30.9197 -81.0908 181° South 438 504 36,000 -400 Level Jacksonville Center
Tue 08:00:03 AM 30.7967 -81.0933 181° South 438 504 35,200 -850 Descending Jacksonville Center
Tue 08:01:03 AM 30.6714 -81.0933 180° South 443 510 34,300 -600 Descending Jacksonville Center
Tue 08:02:03 AM 30.5483 -81.0956 181° South 443 510 34,000 -150 Descending Jacksonville Center
Tue 08:03:03 AM 30.4231 -81.0978 181° South 443 510 34,000  Level Jacksonville Center
Tue 08:04:03 AM 30.2978 -81.1003 181° South 443 510 34,000  Level Jacksonville Center
Tue 08:05:03 AM 30.1767 -81.1025 181° South 443 510 34,000  Level Jacksonville Center
Tue 08:06:03 AM 30.0514 -81.1047 181° South 443 510 34,000 -1,250 Level Jacksonville Center
Tue 08:07:03 AM 29.9303 -81.1047 180° South 443 510 31,500 -2,800 Descending Jacksonville Center
Tue 08:08:03 AM 29.8094 -81.1069 181° South 438 504 28,400 -2,800 Descending Jacksonville Center
Tue 08:09:03 AM 29.6925 -81.1114 182° South 433 498 25,900 -2,500 Descending Jacksonville Center
Tue 08:10:03 AM 29.5756 -81.1136 181° South 427 491 23,400 -2,400 Descending Jacksonville Center
Tue 08:11:03 AM 29.4711 -81.1131 180° South 406 467 21,100 -2,250 Descending Jacksonville Center
Tue 08:12:03 AM 29.3669 -81.1125 180° South 393 452 18,900 -2,150 Descending Jacksonville Center
Tue 08:13:03 AM 29.2644 -81.1119 180° South 373 429 16,800 -2,200 Descending Jacksonville Center
Tue 08:14:03 AM 29.1664 -81.1019 175° South 363 418 14,500 -2,250 Descending Jacksonville Center
Tue 08:15:03 AM 29.0703 -81.0967 177° South 363 418 12,300 -1,250 Descending Jacksonville Center
Tue 08:16:03 AM 28.9739 -81.0817 172° South 352 405 12,000 -750 Descending Jacksonville Center
Tue 08:17:03 AM 28.8925 -81.0689 172° South 332 382 10,800 -1,357 Descending Jacksonville Center
Tue 08:17:27 AM 28.8500 -81.0667 177° South 299 344 10,100 -1,533 Descending Orlando TRACON
Tue 08:18:33 AM 28.7667 -81.0667 180° South 291 335 8,500 -1,100 Descending Orlando TRACON
Tue 08:19:27 AM 28.7500 -81.1333 254° West 251 289 7,900 -939 Descending Orlando TRACON
Tue 08:20:28 AM 28.7167 -81.2167 245° Southwest 249 287 6,700 -1,286 Descending Orlando TRACON
Tue 08:21:33 AM 28.6833 -81.2667 233° Southwest 228 262 5,200 -1,238 Descending Orlando TRACON
Tue 08:22:34 AM 28.6167 -81.2833 192° South 221 254 4,100 -1,043 Descending Orlando TRACON
Tue 08:23:28 AM 28.5667 -81.3000 196° South 197 227 3,200 -1,000 Descending Orlando TRACON
Tue 08:24:34 AM 28.5167 -81.3000 180° South 138 159 2,100 -1,045 Descending Orlando TRACON
Tue 08:25:40 AM 28.4833 -81.3000 180° South 133 153 900 -1,091 Descending Orlando TRACON
Tue 08:27:00 AM 28.4294 -81.3090 186° South  Level Estimated

Login

Don't have an account? Register now (free) for customized features, flight alerts, and more!